sensor_id;sensor_type;location;lat;lon;timestamp;P1;durP1;ratioP1;P2;durP2;ratioP2
9034;SDS011;4552;43.422;24.592;2023-04-05T00:00:41;11.57;;;7.43;;
9034;SDS011;4552;43.422;24.592;2023-04-05T00:03:08;7.23;;;5.77;;
9034;SDS011;4552;43.422;24.592;2023-04-05T00:19:07;9.10;;;6.13;;
9034;SDS011;4552;43.422;24.592;2023-04-05T00:35:02;9.00;;;6.03;;
9034;SDS011;4552;43.422;24.592;2023-04-05T00:37:30;9.17;;;5.67;;
9034;SDS011;4552;43.422;24.592;2023-04-05T00:39:57;9.93;;;6.27;;
9034;SDS011;4552;43.422;24.592;2023-04-05T00:42:25;11.07;;;6.83;;
9034;SDS011;4552;43.422;24.592;2023-04-05T00:44:52;8.23;;;5.77;;
9034;SDS011;4552;43.422;24.592;2023-04-05T00:47:20;7.97;;;5.73;;
9034;SDS011;4552;43.422;24.592;2023-04-05T00:49:47;8.37;;;5.87;;
9034;SDS011;4552;43.422;24.592;2023-04-05T00:52:15;9.63;;;6.40;;
9034;SDS011;4552;43.422;24.592;2023-04-05T00:54:43;9.27;;;6.13;;
9034;SDS011;4552;43.422;24.592;2023-04-05T00:57:11;8.03;;;5.80;;
9034;SDS011;4552;43.422;24.592;2023-04-05T00:59:38;9.53;;;6.33;;
9034;SDS011;4552;43.422;24.592;2023-04-05T01:02:20;7.97;;;5.73;;
9034;SDS011;4552;43.422;24.592;2023-04-05T01:05:05;9.60;;;5.67;;
9034;SDS011;4552;43.422;24.592;2023-04-05T01:07:42;7.43;;;5.30;;
9034;SDS011;4552;43.422;24.592;2023-04-05T01:10:31;7.97;;;5.47;;
9034;SDS011;4552;43.422;24.592;2023-04-05T01:13:05;8.20;;;5.90;;
9034;SDS011;4552;43.422;24.592;2023-04-05T01:15:33;8.23;;;5.40;;
9034;SDS011;4552;43.422;24.592;2023-04-05T01:18:00;7.50;;;5.10;;
9034;SDS011;4552;43.422;24.592;2023-04-05T01:44:31;6.47;;;4.40;;
9034;SDS011;4552;43.422;24.592;2023-04-05T01:46:58;7.57;;;5.37;;
9034;SDS011;4552;43.422;24.592;2023-04-05T01:49:25;4.70;;;4.20;;
9034;SDS011;4552;43.422;24.592;2023-04-05T01:51:52;6.90;;;5.20;;
9034;SDS011;4552;43.422;24.592;2023-04-05T01:54:19;6.90;;;5.10;;
9034;SDS011;4552;43.422;24.592;2023-04-05T01:56:46;5.73;;;4.33;;
9034;SDS011;4552;43.422;24.592;2023-04-05T01:59:13;6.63;;;4.73;;
9034;SDS011;4552;43.422;24.592;2023-04-05T02:01:42;6.93;;;4.60;;
9034;SDS011;4552;43.422;24.592;2023-04-05T02:04:09;5.87;;;4.23;;
9034;SDS011;4552;43.422;24.592;2023-04-05T03:27:07;6.17;;;4.73;;
9034;SDS011;4552;43.422;24.592;2023-04-05T03:29:34;4.83;;;4.03;;
9034;SDS011;4552;43.422;24.592;2023-04-05T03:32:05;6.87;;;4.57;;
9034;SDS011;4552;43.422;24.592;2023-04-05T03:34:35;5.13;;;4.20;;
9034;SDS011;4552;43.422;24.592;2023-04-05T03:37:02;5.77;;;4.50;;
9034;SDS011;4552;43.422;24.592;2023-04-05T03:39:31;6.13;;;4.43;;
9034;SDS011;4552;43.422;24.592;2023-04-05T03:41:59;6.03;;;4.30;;
9034;SDS011;4552;43.422;24.592;2023-04-05T03:44:32;5.67;;;4.30;;
9034;SDS011;4552;43.422;24.592;2023-04-05T03:46:59;5.40;;;3.50;;
9034;SDS011;4552;43.422;24.592;2023-04-05T03:49:25;4.27;;;3.60;;
9034;SDS011;4552;43.422;24.592;2023-04-05T03:58:57;4.33;;;3.57;;
9034;SDS011;4552;43.422;24.592;2023-04-05T04:01:27;5.47;;;4.20;;
9034;SDS011;4552;43.422;24.592;2023-04-05T04:03:54;4.77;;;3.77;;
9034;SDS011;4552;43.422;24.592;2023-04-05T04:06:21;4.73;;;3.87;;
9034;SDS011;4552;43.422;24.592;2023-04-05T04:08:51;4.37;;;3.80;;
9034;SDS011;4552;43.422;24.592;2023-04-05T04:11:18;4.87;;;3.57;;
9034;SDS011;4552;43.422;24.592;2023-04-05T04:13:45;4.47;;;3.40;;
9034;SDS011;4552;43.422;24.592;2023-04-05T04:16:15;4.80;;;3.73;;
9034;SDS011;4552;43.422;24.592;2023-04-05T04:18:44;4.40;;;3.47;;
9034;SDS011;4552;43.422;24.592;2023-04-05T04:21:24;5.23;;;3.83;;
9034;SDS011;4552;43.422;24.592;2023-04-05T04:23:51;4.77;;;3.80;;
9034;SDS011;4552;43.422;24.592;2023-04-05T04:26:21;4.00;;;3.30;;
9034;SDS011;4552;43.422;24.592;2023-04-05T04:28:53;4.57;;;3.57;;
9034;SDS011;4552;43.422;24.592;2023-04-05T04:31:20;4.50;;;3.57;;
9034;SDS011;4552;43.422;24.592;2023-04-05T04:33:49;4.27;;;3.47;;
9034;SDS011;4552;43.422;24.592;2023-04-05T04:36:17;4.47;;;3.60;;
9034;SDS011;4552;43.422;24.592;2023-04-05T04:38:59;5.07;;;3.90;;
9034;SDS011;4552;43.422;24.592;2023-04-05T04:41:26;4.40;;;3.53;;
9034;SDS011;4552;43.422;24.592;2023-04-05T04:43:58;4.60;;;3.87;;
9034;SDS011;4552;43.422;24.592;2023-04-05T04:46:27;4.57;;;3.57;;
9034;SDS011;4552;43.422;24.592;2023-04-05T04:49:00;40.90;;;16.97;;
9034;SDS011;4552;43.422;24.592;2023-04-05T04:51:30;4.27;;;3.67;;
9034;SDS011;4552;43.422;24.592;2023-04-05T04:53:57;4.53;;;3.80;;
9034;SDS011;4552;43.422;24.592;2023-04-05T04:56:24;35.03;;;15.40;;
9034;SDS011;4552;43.422;24.592;2023-04-05T04:58:52;4.27;;;3.67;;
9034;SDS011;4552;43.422;24.592;2023-04-05T05:44:06;4.67;;;3.57;;
9034;SDS011;4552;43.422;24.592;2023-04-05T05:46:33;5.93;;;3.53;;
9034;SDS011;4552;43.422;24.592;2023-04-05T05:49:00;4.47;;;3.80;;
9034;SDS011;4552;43.422;24.592;2023-04-05T06:27:50;3.80;;;3.30;;
9034;SDS011;4552;43.422;24.592;2023-04-05T06:30:22;4.30;;;3.50;;
9034;SDS011;4552;43.422;24.592;2023-04-05T06:33:07;3.70;;;3.20;;
9034;SDS011;4552;43.422;24.592;2023-04-05T06:38:13;3.00;;;2.70;;
9034;SDS011;4552;43.422;24.592;2023-04-05T06:40:41;3.30;;;3.00;;
9034;SDS011;4552;43.422;24.592;2023-04-05T06:43:14;3.30;;;2.90;;
9034;SDS011;4552;43.422;24.592;2023-04-05T06:45:41;2.90;;;2.60;;
9034;SDS011;4552;43.422;24.592;2023-04-05T06:48:12;3.10;;;2.80;;
9034;SDS011;4552;43.422;24.592;2023-04-05T06:50:42;2.87;;;2.63;;
9034;SDS011;4552;43.422;24.592;2023-04-05T06:53:09;2.87;;;2.67;;
9034;SDS011;4552;43.422;24.592;2023-04-05T06:55:47;3.30;;;3.00;;
9034;SDS011;4552;43.422;24.592;2023-04-05T06:58:16;3.03;;;2.83;;
9034;SDS011;4552;43.422;24.592;2023-04-05T07:12:47;2.90;;;2.67;;
9034;SDS011;4552;43.422;24.592;2023-04-05T07:15:26;2.97;;;2.73;;
9034;SDS011;4552;43.422;24.592;2023-04-05T07:18:01;2.87;;;2.67;;
9034;SDS011;4552;43.422;24.592;2023-04-05T07:33:59;2.00;;;1.80;;
9034;SDS011;4552;43.422;24.592;2023-04-05T07:50:07;1.80;;;1.70;;
9034;SDS011;4552;43.422;24.592;2023-04-05T07:52:47;1.83;;;1.53;;
9034;SDS011;4552;43.422;24.592;2023-04-05T07:55:14;1.70;;;1.60;;
9034;SDS011;4552;43.422;24.592;2023-04-05T07:57:42;1.80;;;1.70;;
9034;SDS011;4552;43.422;24.592;2023-04-05T08:00:27;1.53;;;1.43;;
9034;SDS011;4552;43.422;24.592;2023-04-05T08:02:54;3.27;;;1.47;;
9034;SDS011;4552;43.422;24.592;2023-04-05T08:05:23;1.63;;;1.53;;
9034;SDS011;4552;43.422;24.592;2023-04-05T08:18:20;1.43;;;1.33;;
9034;SDS011;4552;43.422;24.592;2023-04-05T08:20:51;1.67;;;1.57;;
9034;SDS011;4552;43.422;24.592;2023-04-05T08:23:19;1.70;;;1.60;;
9034;SDS011;4552;43.422;24.592;2023-04-05T08:25:51;1.50;;;1.40;;
9034;SDS011;4552;43.422;24.592;2023-04-05T08:28:32;2.00;;;1.73;;
9034;SDS011;4552;43.422;24.592;2023-04-05T08:31:05;2.00;;;1.80;;
9034;SDS011;4552;43.422;24.592;2023-04-05T08:33:35;1.90;;;1.80;;
9034;SDS011;4552;43.422;24.592;2023-04-05T08:36:07;1.60;;;1.50;;
9034;SDS011;4552;43.422;24.592;2023-04-05T08:38:35;1.80;;;1.70;;
9034;SDS011;4552;43.422;24.592;2023-04-05T08:41:07;1.90;;;1.67;;
9034;SDS011;4552;43.422;24.592;2023-04-05T08:43:46;1.60;;;1.50;;
9034;SDS011;4552;43.422;24.592;2023-04-05T08:46:27;1.73;;;1.60;;
9034;SDS011;4552;43.422;24.592;2023-04-05T08:48:59;1.63;;;1.53;;
9034;SDS011;4552;43.422;24.592;2023-04-05T08:51:34;1.43;;;1.33;;
9034;SDS011;4552;43.422;24.592;2023-04-05T08:54:09;1.40;;;1.30;;
9034;SDS011;4552;43.422;24.592;2023-04-05T08:56:56;1.63;;;1.53;;
9034;SDS011;4552;43.422;24.592;2023-04-05T08:59:38;1.40;;;1.30;;
9034;SDS011;4552;43.422;24.592;2023-04-05T09:02:13;1.17;;;1.17;;
9034;SDS011;4552;43.422;24.592;2023-04-05T09:04:43;1.70;;;1.60;;
9034;SDS011;4552;43.422;24.592;2023-04-05T09:21:00;1.40;;;1.30;;
9034;SDS011;4552;43.422;24.592;2023-04-05T09:23:49;1.40;;;1.30;;
9034;SDS011;4552;43.422;24.592;2023-04-05T09:26:20;1.30;;;1.30;;
9034;SDS011;4552;43.422;24.592;2023-04-05T09:29:07;1.30;;;1.20;;
9034;SDS011;4552;43.422;24.592;2023-04-05T09:31:54;1.20;;;1.20;;
9034;SDS011;4552;43.422;24.592;2023-04-05T09:34:23;1.37;;;1.27;;
9034;SDS011;4552;43.422;24.592;2023-04-05T09:37:12;1.37;;;1.30;;
9034;SDS011;4552;43.422;24.592;2023-04-05T09:39:40;1.80;;;1.70;;
9034;SDS011;4552;43.422;24.592;2023-04-05T09:42:10;1.67;;;1.57;;
9034;SDS011;4552;43.422;24.592;2023-04-05T09:44:49;1.57;;;1.47;;
9034;SDS011;4552;43.422;24.592;2023-04-05T09:47:18;1.60;;;1.50;;
9034;SDS011;4552;43.422;24.592;2023-04-05T09:49:47;1.37;;;1.30;;
9034;SDS011;4552;43.422;24.592;2023-04-05T09:55:45;1.30;;;1.20;;
9034;SDS011;4552;43.422;24.592;2023-04-05T09:58:17;1.80;;;1.70;;
9034;SDS011;4552;43.422;24.592;2023-04-05T10:00:50;1.50;;;1.40;;
9034;SDS011;4552;43.422;24.592;2023-04-05T10:03:18;2.40;;;1.50;;
9034;SDS011;4552;43.422;24.592;2023-04-05T10:05:45;1.50;;;1.40;;
9034;SDS011;4552;43.422;24.592;2023-04-05T10:08:13;1.37;;;1.37;;
9034;SDS011;4552;43.422;24.592;2023-04-05T10:10:44;1.60;;;1.50;;
9034;SDS011;4552;43.422;24.592;2023-04-05T10:13:16;1.60;;;1.50;;
9034;SDS011;4552;43.422;24.592;2023-04-05T10:15:44;1.53;;;1.43;;
9034;SDS011;4552;43.422;24.592;2023-04-05T10:18:17;1.47;;;1.37;;
9034;SDS011;4552;43.422;24.592;2023-04-05T10:20:47;1.60;;;1.50;;
9034;SDS011;4552;43.422;24.592;2023-04-05T10:23:20;2.00;;;1.30;;
9034;SDS011;4552;43.422;24.592;2023-04-05T10:25:58;1.60;;;1.50;;
9034;SDS011;4552;43.422;24.592;2023-04-05T10:28:31;1.50;;;1.40;;
9034;SDS011;4552;43.422;24.592;2023-04-05T10:31:06;1.60;;;1.50;;
9034;SDS011;4552;43.422;24.592;2023-04-05T10:33:39;1.37;;;1.27;;
9034;SDS011;4552;43.422;24.592;2023-04-05T10:36:11;1.53;;;1.43;;
9034;SDS011;4552;43.422;24.592;2023-04-05T10:38:59;1.67;;;1.57;;
9034;SDS011;4552;43.422;24.592;2023-04-05T10:44:33;1.70;;;1.60;;
9034;SDS011;4552;43.422;24.592;2023-04-05T10:47:03;2.53;;;1.73;;
9034;SDS011;4552;43.422;24.592;2023-04-05T10:49:36;1.63;;;1.53;;
9034;SDS011;4552;43.422;24.592;2023-04-05T10:55:29;1.60;;;1.50;;
9034;SDS011;4552;43.422;24.592;2023-04-05T10:57:59;1.80;;;1.70;;
9034;SDS011;4552;43.422;24.592;2023-04-05T11:00:26;1.57;;;1.47;;
9034;SDS011;4552;43.422;24.592;2023-04-05T11:02:53;1.60;;;1.50;;
9034;SDS011;4552;43.422;24.592;2023-04-05T11:05:28;2.00;;;1.80;;
9034;SDS011;4552;43.422;24.592;2023-04-05T11:08:04;2.00;;;1.80;;
9034;SDS011;4552;43.422;24.592;2023-04-05T11:10:39;1.63;;;1.53;;
9034;SDS011;4552;43.422;24.592;2023-04-05T11:13:09;1.60;;;1.50;;
9034;SDS011;4552;43.422;24.592;2023-04-05T11:15:39;1.73;;;1.63;;
9034;SDS011;4552;43.422;24.592;2023-04-05T11:18:08;1.73;;;1.63;;
9034;SDS011;4552;43.422;24.592;2023-04-05T11:20:45;1.63;;;1.53;;
9034;SDS011;4552;43.422;24.592;2023-04-05T11:23:16;1.87;;;1.77;;
9034;SDS011;4552;43.422;24.592;2023-04-05T11:25:50;1.90;;;1.80;;
9034;SDS011;4552;43.422;24.592;2023-04-05T11:28:33;1.97;;;1.77;;
9034;SDS011;4552;43.422;24.592;2023-04-05T11:31:13;1.90;;;1.80;;
9034;SDS011;4552;43.422;24.592;2023-04-05T11:34:02;1.73;;;1.63;;
9034;SDS011;4552;43.422;24.592;2023-04-05T11:36:35;1.80;;;1.70;;
9034;SDS011;4552;43.422;24.592;2023-04-05T11:39:24;2.77;;;1.80;;
9034;SDS011;4552;43.422;24.592;2023-04-05T11:41:53;1.93;;;1.83;;
9034;SDS011;4552;43.422;24.592;2023-04-05T11:44:38;1.63;;;1.53;;
9034;SDS011;4552;43.422;24.592;2023-04-05T11:47:09;1.90;;;1.80;;
9034;SDS011;4552;43.422;24.592;2023-04-05T11:49:37;2.70;;;2.00;;
9034;SDS011;4552;43.422;24.592;2023-04-05T12:32:12;2.00;;;1.90;;
9034;SDS011;4552;43.422;24.592;2023-04-05T12:34:46;2.67;;;2.17;;
9034;SDS011;4552;43.422;24.592;2023-04-05T12:37:15;1.70;;;1.60;;
9034;SDS011;4552;43.422;24.592;2023-04-05T12:39:42;2.60;;;2.00;;
9034;SDS011;4552;43.422;24.592;2023-04-05T12:42:15;2.00;;;1.90;;
9034;SDS011;4552;43.422;24.592;2023-04-05T12:44:43;2.50;;;2.30;;
9034;SDS011;4552;43.422;24.592;2023-04-05T12:47:11;2.30;;;2.10;;
9034;SDS011;4552;43.422;24.592;2023-04-05T12:49:41;2.30;;;2.10;;
9034;SDS011;4552;43.422;24.592;2023-04-05T12:52:08;2.40;;;2.20;;
9034;SDS011;4552;43.422;24.592;2023-04-05T12:54:35;2.80;;;2.47;;
9034;SDS011;4552;43.422;24.592;2023-04-05T12:57:04;2.40;;;2.20;;
9034;SDS011;4552;43.422;24.592;2023-04-05T12:59:32;2.60;;;2.40;;
9034;SDS011;4552;43.422;24.592;2023-04-05T13:02:01;2.87;;;2.60;;
9034;SDS011;4552;43.422;24.592;2023-04-05T13:04:31;3.80;;;2.80;;
9034;SDS011;4552;43.422;24.592;2023-04-05T13:06:58;3.57;;;2.77;;
9034;SDS011;4552;43.422;24.592;2023-04-05T13:09:29;2.70;;;2.50;;
9034;SDS011;4552;43.422;24.592;2023-04-05T13:12:02;2.93;;;2.63;;
9034;SDS011;4552;43.422;24.592;2023-04-05T13:14:29;2.97;;;2.60;;
9034;SDS011;4552;43.422;24.592;2023-04-05T13:16:56;3.03;;;2.70;;
9034;SDS011;4552;43.422;24.592;2023-04-05T13:19:26;2.90;;;2.60;;
9034;SDS011;4552;43.422;24.592;2023-04-05T13:21:54;2.97;;;2.67;;
9034;SDS011;4552;43.422;24.592;2023-04-05T13:24:21;3.10;;;2.80;;
9034;SDS011;4552;43.422;24.592;2023-04-05T13:26:48;3.20;;;2.90;;
9034;SDS011;4552;43.422;24.592;2023-04-05T13:29:15;4.00;;;3.30;;
9034;SDS011;4552;43.422;24.592;2023-04-05T13:31:45;6.57;;;3.33;;
9034;SDS011;4552;43.422;24.592;2023-04-05T13:34:14;3.57;;;3.17;;
9034;SDS011;4552;43.422;24.592;2023-04-05T14:04:01;2.93;;;2.43;;
9034;SDS011;4552;43.422;24.592;2023-04-05T14:16:48;3.50;;;3.20;;
9034;SDS011;4552;43.422;24.592;2023-04-05T14:19:18;3.85;;;3.45;;
9034;SDS011;4552;43.422;24.592;2023-04-05T14:21:46;3.40;;;3.10;;
9034;SDS011;4552;43.422;24.592;2023-04-05T14:24:14;3.93;;;3.40;;
9034;SDS011;4552;43.422;24.592;2023-04-05T14:26:42;3.43;;;2.53;;
9034;SDS011;4552;43.422;24.592;2023-04-05T14:29:10;3.97;;;3.13;;
9034;SDS011;4552;43.422;24.592;2023-04-05T14:31:37;3.50;;;3.20;;
9034;SDS011;4552;43.422;24.592;2023-04-05T14:34:20;3.30;;;2.97;;
9034;SDS011;4552;43.422;24.592;2023-04-05T14:36:48;3.33;;;3.00;;
9034;SDS011;4552;43.422;24.592;2023-04-05T14:39:15;3.77;;;3.37;;
9034;SDS011;4552;43.422;24.592;2023-04-05T14:44:32;4.13;;;3.40;;
9034;SDS011;4552;43.422;24.592;2023-04-05T14:47:06;4.37;;;3.53;;
9034;SDS011;4552;43.422;24.592;2023-04-05T14:49:34;3.20;;;2.80;;
9034;SDS011;4552;43.422;24.592;2023-04-05T15:29:09;4.47;;;3.33;;
9034;SDS011;4552;43.422;24.592;2023-04-05T15:31:42;3.63;;;3.00;;
9034;SDS011;4552;43.422;24.592;2023-04-05T15:34:19;3.57;;;3.10;;
9034;SDS011;4552;43.422;24.592;2023-04-05T15:57:08;4.03;;;3.40;;
9034;SDS011;4552;43.422;24.592;2023-04-05T15:59:35;3.97;;;3.23;;
9034;SDS011;4552;43.422;24.592;2023-04-05T16:02:02;4.23;;;3.53;;
9034;SDS011;4552;43.422;24.592;2023-04-05T16:04:43;3.80;;;3.40;;
9034;SDS011;4552;43.422;24.592;2023-04-05T16:15:06;4.43;;;3.93;;
9034;SDS011;4552;43.422;24.592;2023-04-05T16:17:33;3.67;;;3.30;;
9034;SDS011;4552;43.422;24.592;2023-04-05T16:20:00;3.70;;;3.20;;
9034;SDS011;4552;43.422;24.592;2023-04-05T16:42:41;4.37;;;3.20;;
9034;SDS011;4552;43.422;24.592;2023-04-05T16:45:09;4.80;;;3.40;;
9034;SDS011;4552;43.422;24.592;2023-04-05T16:47:37;3.60;;;3.30;;
9034;SDS011;4552;43.422;24.592;2023-04-05T16:50:06;5.00;;;3.67;;
9034;SDS011;4552;43.422;24.592;2023-04-05T17:32:25;4.00;;;3.40;;
9034;SDS011;4552;43.422;24.592;2023-04-05T17:34:58;4.80;;;3.30;;
9034;SDS011;4552;43.422;24.592;2023-04-05T17:37:31;4.20;;;3.30;;
9034;SDS011;4552;43.422;24.592;2023-04-05T17:39:59;4.57;;;3.20;;
9034;SDS011;4552;43.422;24.592;2023-04-05T17:42:26;4.30;;;3.20;;
9034;SDS011;4552;43.422;24.592;2023-04-05T17:44:53;3.67;;;3.37;;
9034;SDS011;4552;43.422;24.592;2023-04-05T17:47:21;4.00;;;3.60;;
9034;SDS011;4552;43.422;24.592;2023-04-05T17:52:33;4.70;;;3.43;;
9034;SDS011;4552;43.422;24.592;2023-04-05T17:55:00;5.40;;;3.60;;
9034;SDS011;4552;43.422;24.592;2023-04-05T17:57:27;4.20;;;3.50;;
9034;SDS011;4552;43.422;24.592;2023-04-05T17:59:57;3.87;;;3.47;;
9034;SDS011;4552;43.422;24.592;2023-04-05T18:02:24;4.27;;;3.40;;
9034;SDS011;4552;43.422;24.592;2023-04-05T18:04:54;5.67;;;3.43;;
9034;SDS011;4552;43.422;24.592;2023-04-05T18:07:23;5.07;;;3.40;;
9034;SDS011;4552;43.422;24.592;2023-04-05T18:09:51;4.87;;;3.73;;
9034;SDS011;4552;43.422;24.592;2023-04-05T18:12:19;3.87;;;3.37;;
9034;SDS011;4552;43.422;24.592;2023-04-05T18:14:54;4.80;;;3.57;;
9034;SDS011;4552;43.422;24.592;2023-04-05T18:17:26;5.63;;;4.10;;
9034;SDS011;4552;43.422;24.592;2023-04-05T18:19:54;4.57;;;4.03;;
9034;SDS011;4552;43.422;24.592;2023-04-05T18:22:23;5.43;;;3.57;;
9034;SDS011;4552;43.422;24.592;2023-04-05T18:24:50;3.60;;;3.17;;
9034;SDS011;4552;43.422;24.592;2023-04-05T18:27:27;5.20;;;3.80;;
9034;SDS011;4552;43.422;24.592;2023-04-05T18:29:56;4.43;;;3.67;;
9034;SDS011;4552;43.422;24.592;2023-04-05T18:32:23;5.73;;;3.80;;
9034;SDS011;4552;43.422;24.592;2023-04-05T18:35:00;5.30;;;3.60;;
9034;SDS011;4552;43.422;24.592;2023-04-05T18:51:00;5.07;;;3.70;;
9034;SDS011;4552;43.422;24.592;2023-04-05T18:53:35;5.23;;;3.70;;
9034;SDS011;4552;43.422;24.592;2023-04-05T18:56:25;5.20;;;3.80;;
9034;SDS011;4552;43.422;24.592;2023-04-05T18:58:53;5.33;;;3.90;;
9034;SDS011;4552;43.422;24.592;2023-04-05T19:01:21;6.60;;;3.93;;
9034;SDS011;4552;43.422;24.592;2023-04-05T19:04:09;4.80;;;3.63;;
9034;SDS011;4552;43.422;24.592;2023-04-05T19:06:37;5.13;;;4.40;;
9034;SDS011;4552;43.422;24.592;2023-04-05T19:09:06;3.53;;;3.17;;
9034;SDS011;4552;43.422;24.592;2023-04-05T19:11:33;4.73;;;3.70;;
9034;SDS011;4552;43.422;24.592;2023-04-05T19:14:01;3.90;;;3.50;;
9034;SDS011;4552;43.422;24.592;2023-04-05T19:16:29;4.33;;;3.90;;
9034;SDS011;4552;43.422;24.592;2023-04-05T19:18:56;5.17;;;3.93;;
9034;SDS011;4552;43.422;24.592;2023-04-05T19:21:24;7.77;;;4.60;;
9034;SDS011;4552;43.422;24.592;2023-04-05T19:23:54;4.50;;;3.97;;
9034;SDS011;4552;43.422;24.592;2023-04-05T19:26:21;5.27;;;4.20;;
9034;SDS011;4552;43.422;24.592;2023-04-05T19:28:49;5.17;;;4.37;;
9034;SDS011;4552;43.422;24.592;2023-04-05T19:31:16;5.27;;;4.40;;
9034;SDS011;4552;43.422;24.592;2023-04-05T19:33:43;4.67;;;4.20;;
9034;SDS011;4552;43.422;24.592;2023-04-05T19:36:10;6.17;;;4.07;;
9034;SDS011;4552;43.422;24.592;2023-04-05T19:38:39;4.97;;;3.97;;
9034;SDS011;4552;43.422;24.592;2023-04-05T19:41:07;6.33;;;4.70;;
9034;SDS011;4552;43.422;24.592;2023-04-05T19:43:34;5.80;;;4.40;;
9034;SDS011;4552;43.422;24.592;2023-04-05T19:46:06;4.63;;;4.10;;
9034;SDS011;4552;43.422;24.592;2023-04-05T19:48:38;5.53;;;4.32;;
9034;SDS011;4552;43.422;24.592;2023-04-05T20:04:35;4.97;;;4.13;;
9034;SDS011;4552;43.422;24.592;2023-04-05T20:07:03;6.10;;;4.40;;
9034;SDS011;4552;43.422;24.592;2023-04-05T20:09:34;5.30;;;4.03;;
9034;SDS011;4552;43.422;24.592;2023-04-05T20:12:05;4.60;;;4.10;;
9034;SDS011;4552;43.422;24.592;2023-04-05T20:14:37;4.63;;;4.10;;
9034;SDS011;4552;43.422;24.592;2023-04-05T20:17:08;6.27;;;4.70;;
9034;SDS011;4552;43.422;24.592;2023-04-05T20:19:38;6.37;;;4.00;;
9034;SDS011;4552;43.422;24.592;2023-04-05T20:22:07;5.20;;;4.20;;
9034;SDS011;4552;43.422;24.592;2023-04-05T20:24:35;5.13;;;4.10;;
9034;SDS011;4552;43.422;24.592;2023-04-05T20:27:03;5.30;;;4.27;;
9034;SDS011;4552;43.422;24.592;2023-04-05T20:29:33;5.73;;;4.43;;
9034;SDS011;4552;43.422;24.592;2023-04-05T20:32:00;5.83;;;4.70;;
9034;SDS011;4552;43.422;24.592;2023-04-05T20:34:28;7.63;;;4.80;;
9034;SDS011;4552;43.422;24.592;2023-04-05T20:36:58;5.73;;;4.63;;
9034;SDS011;4552;43.422;24.592;2023-04-05T20:39:27;5.17;;;4.17;;
9034;SDS011;4552;43.422;24.592;2023-04-05T20:41:54;6.50;;;5.07;;
9034;SDS011;4552;43.422;24.592;2023-04-05T20:44:24;5.67;;;4.13;;
9034;SDS011;4552;43.422;24.592;2023-04-05T20:46:52;5.83;;;4.73;;
9034;SDS011;4552;43.422;24.592;2023-04-05T20:49:23;4.67;;;4.00;;
9034;SDS011;4552;43.422;24.592;2023-04-05T20:51:52;5.10;;;4.10;;
9034;SDS011;4552;43.422;24.592;2023-04-05T20:57:44;5.73;;;4.37;;
9034;SDS011;4552;43.422;24.592;2023-04-05T21:00:11;5.70;;;4.60;;
9034;SDS011;4552;43.422;24.592;2023-04-05T21:02:40;7.67;;;4.80;;
9034;SDS011;4552;43.422;24.592;2023-04-05T21:05:07;6.27;;;4.17;;
9034;SDS011;4552;43.422;24.592;2023-04-05T23:19:50;3.50;;;3.20;;
9034;SDS011;4552;43.422;24.592;2023-04-05T23:22:17;5.07;;;3.63;;
9034;SDS011;4552;43.422;24.592;2023-04-05T23:24:44;4.13;;;3.10;;
9034;SDS011;4552;43.422;24.592;2023-04-05T23:27:11;3.70;;;3.20;;
9034;SDS011;4552;43.422;24.592;2023-04-05T23:29:38;5.47;;;4.07;;
9034;SDS011;4552;43.422;24.592;2023-04-05T23:32:05;4.33;;;3.73;;
9034;SDS011;4552;43.422;24.592;2023-04-05T23:34:36;5.30;;;3.87;;
9034;SDS011;4552;43.422;24.592;2023-04-05T23:37:05;5.50;;;3.97;;
9034;SDS011;4552;43.422;24.592;2023-04-05T23:39:34;4.33;;;3.93;;
9034;SDS011;4552;43.422;24.592;2023-04-05T23:42:01;5.10;;;4.13;;
9034;SDS011;4552;43.422;24.592;2023-04-05T23:44:28;4.33;;;3.47;;
9034;SDS011;4552;43.422;24.592;2023-04-05T23:46:56;5.67;;;3.97;;
9034;SDS011;4552;43.422;24.592;2023-04-05T23:49:23;4.27;;;3.63;;
9034;SDS011;4552;43.422;24.592;2023-04-05T23:51:51;4.83;;;4.00;;
9034;SDS011;4552;43.422;24.592;2023-04-05T23:54:19;6.30;;;4.23;;
9034;SDS011;4552;43.422;24.592;2023-04-05T23:56:47;4.65;;;4.00;;
9034;SDS011;4552;43.422;24.592;2023-04-05T23:59:15;7.27;;;4.00;;
